createdAt,value
2023-02-25T00:00:44.016Z,5.44
2023-02-25T00:01:57.673Z,5.41
2023-02-25T00:02:45.025Z,5.36
2023-02-25T00:03:44.192Z,5.39
2023-02-25T00:04:43.976Z,5.41
2023-02-25T00:05:43.963Z,5.41
2023-02-25T00:06:43.997Z,5.36
2023-02-25T00:07:43.935Z,5.41
2023-02-25T00:08:43.943Z,5.38
2023-02-25T00:09:43.945Z,5.38
2023-02-25T00:10:43.906Z,5.38
2023-02-25T00:11:43.892Z,5.35
2023-02-25T00:12:43.880Z,5.39
2023-02-25T00:13:43.890Z,5.28
2023-02-25T00:14:43.854Z,5.33
2023-02-25T00:15:43.857Z,5.33
2023-02-25T00:16:43.877Z,5.26
2023-02-25T00:17:43.927Z,5.26
2023-02-25T00:18:43.826Z,5.35
2023-02-25T00:19:43.804Z,5.23
2023-02-25T00:20:43.802Z,5.32
2023-02-25T00:21:43.806Z,5.29
2023-02-25T00:22:43.775Z,5.26
2023-02-25T00:23:43.772Z,5.23
2023-02-25T00:24:43.762Z,5.26
2023-02-25T00:25:43.770Z,5.26
2023-02-25T00:26:43.801Z,5.25
2023-02-25T00:27:43.729Z,5.28
2023-02-25T00:28:43.724Z,5.26
2023-02-25T00:29:43.697Z,5.23
2023-02-25T00:30:43.771Z,5.18
2023-02-25T00:31:44.033Z,5.12
2023-02-25T00:32:43.773Z,5.00
2023-02-25T00:33:44.527Z,4.90
2023-02-25T00:34:43.680Z,4.84
2023-02-25T00:35:43.663Z,4.70
2023-02-25T00:36:43.658Z,4.66
2023-02-25T00:37:43.623Z,4.59
2023-02-25T00:38:43.591Z,4.62
2023-02-25T00:39:43.717Z,4.56
2023-02-25T00:40:43.572Z,4.55
2023-02-25T00:41:43.612Z,4.50
2023-02-25T00:42:43.554Z,4.35
2023-02-25T00:43:43.563Z,4.37
2023-02-25T00:44:43.532Z,4.20
2023-02-25T00:45:43.541Z,4.26
2023-02-25T00:46:43.661Z,4.13
2023-02-25T00:47:43.524Z,4.08
2023-02-25T00:48:43.490Z,4.13
2023-02-25T00:49:43.476Z,4.20
2023-02-25T00:50:43.473Z,4.17
2023-02-25T00:51:43.452Z,4.12
2023-02-25T00:52:43.440Z,4.06
2023-02-25T00:53:43.563Z,4.17
2023-02-25T00:54:43.423Z,4.12
2023-02-25T00:55:43.422Z,4.08
2023-02-25T00:56:43.418Z,4.02
2023-02-25T00:57:43.410Z,4.04
2023-02-25T00:58:43.377Z,4.14
2023-02-25T00:59:43.365Z,4.04
2023-02-25T01:00:51.752Z,4.04
2023-02-25T01:01:44.401Z,4.13
2023-02-25T01:02:43.434Z,4.16
2023-02-25T01:03:43.320Z,4.12
2023-02-25T01:04:43.315Z,4.08
2023-02-25T01:05:43.302Z,4.12
2023-02-25T01:06:43.341Z,4.14
2023-02-25T01:07:43.274Z,4.17
2023-02-25T01:08:43.282Z,4.22
2023-02-25T01:09:43.258Z,4.20
2023-02-25T01:10:43.260Z,4.12
2023-02-25T01:11:43.262Z,4.23
2023-02-25T01:12:43.220Z,4.16
2023-02-25T01:13:43.250Z,4.14
2023-02-25T01:14:43.192Z,4.16
2023-02-25T01:15:43.622Z,4.14
2023-02-25T01:16:43.187Z,4.20
2023-02-25T01:17:43.166Z,4.23
2023-02-25T01:18:43.170Z,4.23
2023-02-25T01:19:43.153Z,4.20
2023-02-25T01:20:43.149Z,4.31
2023-02-25T01:21:43.122Z,4.19
2023-02-25T01:22:43.118Z,4.24
2023-02-25T01:23:43.101Z,4.20
2023-02-25T01:24:43.138Z,4.30
2023-02-25T01:25:43.095Z,4.28
2023-02-25T01:26:43.068Z,4.30
2023-02-25T01:27:43.057Z,4.28
2023-02-25T01:28:43.044Z,4.31
2023-02-25T01:29:43.051Z,4.28
2023-02-25T01:30:43.111Z,4.38
2023-02-25T01:31:43.157Z,4.37
2023-02-25T01:32:43.201Z,4.52
2023-02-25T01:33:43.001Z,4.48
2023-02-25T01:34:42.984Z,4.52
2023-02-25T01:35:42.981Z,4.48
2023-02-25T01:36:42.953Z,4.49
2023-02-25T01:37:42.946Z,4.48
2023-02-25T01:38:42.927Z,4.48
2023-02-25T01:39:42.962Z,4.48
2023-02-25T01:40:42.909Z,4.45
2023-02-25T01:41:42.902Z,4.48
2023-02-25T01:42:42.892Z,4.45
2023-02-25T01:43:42.876Z,4.58
2023-02-25T01:44:42.902Z,4.56
2023-02-25T01:45:42.889Z,4.60
2023-02-25T01:46:42.957Z,4.55
2023-02-25T01:47:42.836Z,4.59
2023-02-25T01:48:42.850Z,4.59
2023-02-25T01:49:42.816Z,4.55
2023-02-25T01:50:42.824Z,4.58
2023-02-25T01:51:42.850Z,4.56
2023-02-25T01:52:42.779Z,4.56
2023-02-25T01:53:42.774Z,4.66
2023-02-25T01:54:42.782Z,4.63
2023-02-25T01:55:42.765Z,4.58
2023-02-25T01:56:42.741Z,4.55
2023-02-25T01:57:42.729Z,4.59
2023-02-25T01:58:42.719Z,4.67
2023-02-25T01:59:42.705Z,4.67
2023-02-25T02:00:43.187Z,4.67
2023-02-25T02:01:42.702Z,4.71
2023-02-25T02:02:42.747Z,4.71
2023-02-25T02:03:42.661Z,4.71
2023-02-25T02:04:42.658Z,4.63
2023-02-25T02:05:42.705Z,4.71
2023-02-25T02:06:42.635Z,4.70
2023-02-25T02:07:42.625Z,4.63
2023-02-25T02:08:42.605Z,4.75
2023-02-25T02:09:42.608Z,4.68
2023-02-25T02:10:42.599Z,4.77
2023-02-25T02:11:42.593Z,4.66
2023-02-25T02:12:42.562Z,4.67
2023-02-25T02:13:43.067Z,4.71
2023-02-25T02:14:42.606Z,4.67
2023-02-25T02:15:42.547Z,4.70
2023-02-25T02:16:42.602Z,4.68
2023-02-25T02:17:42.532Z,4.71
2023-02-25T02:18:42.497Z,4.75
2023-02-25T02:19:42.502Z,4.73
2023-02-25T02:20:42.703Z,4.74
2023-02-25T02:21:42.467Z,4.68
2023-02-25T02:22:42.449Z,4.80
2023-02-25T02:23:42.436Z,4.71
2023-02-25T02:24:42.444Z,4.71
2023-02-25T02:25:42.448Z,4.74
2023-02-25T02:26:42.415Z,4.78
2023-02-25T02:27:42.402Z,4.82
2023-02-25T02:28:42.386Z,4.80
2023-02-25T02:29:42.562Z,4.77
2023-02-25T02:30:42.548Z,4.70
2023-02-25T02:31:42.574Z,4.80
2023-02-25T02:32:42.423Z,4.80
2023-02-25T02:33:42.373Z,4.71
2023-02-25T02:34:42.323Z,4.67
2023-02-25T02:35:42.308Z,4.80
2023-02-25T02:36:42.328Z,4.77
2023-02-25T02:37:42.298Z,4.80
2023-02-25T02:38:42.294Z,4.68
2023-02-25T02:39:42.265Z,4.77
2023-02-25T02:40:42.268Z,4.77
2023-02-25T02:41:42.255Z,4.77
2023-02-25T02:42:42.245Z,4.77
2023-02-25T02:43:42.239Z,4.80
2023-02-25T02:44:42.205Z,4.80
2023-02-25T02:45:42.253Z,4.82
2023-02-25T02:46:42.185Z,4.80
2023-02-25T02:47:42.173Z,4.80
2023-02-25T02:48:42.163Z,4.82
2023-02-25T02:49:42.166Z,4.77
2023-02-25T02:50:42.149Z,4.63
2023-02-25T02:51:42.260Z,4.71
2023-02-25T02:52:42.128Z,4.68
2023-02-25T02:53:42.103Z,4.73
2023-02-25T02:54:42.106Z,4.67
2023-02-25T02:55:42.083Z,4.66
2023-02-25T02:56:42.126Z,4.71
2023-02-25T02:57:42.066Z,4.71
2023-02-25T02:58:42.058Z,4.77
2023-02-25T02:59:42.106Z,4.75
2023-02-25T03:00:42.214Z,4.71
2023-02-25T03:01:42.015Z,4.68
2023-02-25T03:02:42.016Z,4.67
2023-02-25T03:03:42.049Z,4.78
2023-02-25T03:04:42.009Z,4.73
2023-02-25T03:05:42.004Z,4.77
2023-02-25T03:06:41.951Z,4.67
2023-02-25T03:07:42.570Z,4.71
2023-02-25T03:08:41.966Z,4.73
2023-02-25T03:09:41.950Z,4.73
2023-02-25T03:10:41.931Z,4.68
2023-02-25T03:11:41.897Z,4.73
2023-02-25T03:12:41.888Z,4.71
2023-02-25T03:13:41.885Z,4.70
2023-02-25T03:14:41.872Z,4.71
2023-02-25T03:15:41.860Z,4.71
2023-02-25T03:16:41.891Z,4.71
2023-02-25T03:17:41.830Z,4.68
2023-02-25T03:18:41.849Z,4.73
2023-02-25T03:19:41.821Z,4.70
2023-02-25T03:20:41.814Z,4.68
2023-02-25T03:21:41.816Z,4.67
2023-02-25T03:22:41.781Z,4.67
2023-02-25T03:23:41.799Z,4.68
2023-02-25T03:24:41.760Z,4.66
2023-02-25T03:25:41.745Z,4.60
2023-02-25T03:26:41.737Z,4.70
2023-02-25T03:27:41.785Z,4.75
2023-02-25T03:28:41.734Z,4.67
2023-02-25T03:29:41.832Z,4.74
2023-02-25T03:30:41.806Z,4.62
2023-02-25T03:31:41.790Z,4.70
2023-02-25T03:32:41.836Z,4.66
2023-02-25T03:33:41.661Z,4.63
2023-02-25T03:34:41.681Z,4.62
2023-02-25T03:35:41.647Z,4.68
2023-02-25T03:36:41.682Z,4.67
2023-02-25T03:37:41.632Z,4.60
2023-02-25T03:38:41.615Z,4.66
2023-02-25T03:39:41.598Z,4.66
2023-02-25T03:40:41.612Z,4.60
2023-02-25T03:41:41.568Z,4.62
2023-02-25T03:42:41.563Z,4.67
2023-02-25T03:43:41.554Z,4.60
2023-02-25T03:44:41.545Z,4.78
2023-02-25T03:45:41.616Z,4.58
2023-02-25T03:46:41.549Z,4.63
2023-02-25T03:47:41.520Z,4.67
2023-02-25T03:48:41.494Z,4.68
2023-02-25T03:49:41.808Z,4.71
2023-02-25T03:50:41.472Z,4.67
2023-02-25T03:51:41.466Z,4.55
2023-02-25T03:52:41.462Z,4.70
2023-02-25T03:53:41.462Z,4.70
2023-02-25T03:54:41.439Z,4.60
2023-02-25T03:55:41.420Z,4.73
2023-02-25T03:56:41.758Z,4.62
2023-02-25T03:57:41.395Z,4.63
2023-02-25T03:58:41.392Z,4.62
2023-02-25T03:59:41.421Z,4.68
2023-02-25T04:00:41.566Z,4.63
2023-02-25T04:01:41.623Z,4.67
2023-02-25T04:02:41.456Z,4.62
2023-02-25T04:03:41.331Z,4.66
2023-02-25T04:04:41.419Z,4.70
2023-02-25T04:05:41.307Z,4.58
2023-02-25T04:06:41.310Z,4.70
2023-02-25T04:07:41.423Z,4.55
2023-02-25T04:08:41.278Z,4.59
2023-02-25T04:09:41.353Z,4.62
2023-02-25T04:10:41.272Z,4.62
2023-02-25T04:11:41.252Z,4.62
2023-02-25T04:12:41.242Z,4.55
2023-02-25T04:13:41.239Z,4.60
2023-02-25T04:14:41.216Z,4.58
2023-02-25T04:15:41.240Z,4.55
2023-02-25T04:16:41.187Z,4.60
2023-02-25T04:17:41.179Z,4.58
2023-02-25T04:18:41.155Z,4.60
2023-02-25T04:19:41.154Z,4.52
2023-02-25T04:20:41.180Z,4.55
2023-02-25T04:21:41.136Z,4.58
2023-02-25T04:22:41.115Z,4.59
2023-02-25T04:23:41.112Z,4.55
2023-02-25T04:24:41.091Z,4.55
2023-02-25T04:25:41.137Z,4.58
2023-02-25T04:26:41.081Z,4.58
2023-02-25T04:27:41.110Z,4.58
2023-02-25T04:28:41.070Z,4.55
2023-02-25T04:29:41.040Z,4.59
2023-02-25T04:30:41.094Z,4.59
2023-02-25T04:31:41.368Z,4.58
2023-02-25T04:32:41.208Z,4.60
2023-02-25T04:33:40.987Z,4.60
2023-02-25T04:34:40.987Z,4.56
2023-02-25T04:35:40.985Z,4.58
2023-02-25T04:36:40.956Z,4.55
2023-02-25T04:37:40.950Z,4.55
2023-02-25T04:38:40.940Z,4.59
2023-02-25T04:39:40.923Z,4.55
2023-02-25T04:40:40.942Z,4.56
2023-02-25T04:41:40.932Z,4.59
2023-02-25T04:42:40.903Z,4.53
2023-02-25T04:43:40.876Z,4.60
2023-02-25T04:44:40.869Z,4.50
2023-02-25T04:45:40.876Z,4.50
2023-02-25T04:46:40.948Z,4.44
2023-02-25T04:47:41.596Z,4.48
2023-02-25T04:48:40.838Z,4.48
2023-02-25T04:49:40.828Z,4.49
2023-02-25T04:50:40.804Z,4.44
2023-02-25T04:51:40.836Z,4.48
2023-02-25T04:52:40.779Z,4.49
2023-02-25T04:53:40.781Z,4.42
2023-02-25T04:54:40.774Z,4.49
2023-02-25T04:55:40.761Z,4.44
2023-02-25T04:56:40.745Z,4.44
2023-02-25T04:57:40.749Z,4.44
2023-02-25T04:58:40.734Z,4.44
2023-02-25T04:59:40.740Z,4.32
2023-02-25T05:00:40.703Z,4.35
2023-02-25T05:01:48.707Z,4.37
2023-02-25T05:02:42.674Z,4.26
2023-02-25T05:03:40.671Z,4.45
2023-02-25T05:04:40.760Z,4.23
2023-02-25T05:05:40.654Z,4.28
2023-02-25T05:06:40.644Z,4.31
2023-02-25T05:07:41.124Z,4.30
2023-02-25T05:08:40.606Z,4.37
2023-02-25T05:09:40.654Z,4.35
2023-02-25T05:10:40.589Z,4.38
2023-02-25T05:11:40.592Z,4.34
2023-02-25T05:12:40.581Z,4.35
2023-02-25T05:13:40.595Z,4.34
2023-02-25T05:14:40.567Z,4.31
2023-02-25T05:15:41.093Z,4.32
2023-02-25T05:16:40.664Z,4.32
2023-02-25T05:17:40.553Z,4.24
2023-02-25T05:18:40.502Z,4.22
2023-02-25T05:19:40.521Z,4.22
2023-02-25T05:20:40.579Z,4.16
2023-02-25T05:21:40.462Z,4.22
2023-02-25T05:22:40.477Z,4.31
2023-02-25T05:23:40.442Z,4.34
2023-02-25T05:24:40.444Z,4.20
2023-02-25T05:25:40.440Z,4.20
2023-02-25T05:26:40.418Z,4.28
2023-02-25T05:27:40.568Z,4.20
2023-02-25T05:28:40.388Z,4.28
2023-02-25T05:29:40.812Z,4.28
2023-02-25T05:30:40.370Z,4.28
2023-02-25T05:31:40.673Z,4.30
2023-02-25T05:32:40.546Z,4.31
2023-02-25T05:33:40.346Z,4.28
2023-02-25T05:34:40.342Z,4.32
2023-02-25T05:35:40.313Z,4.19
2023-02-25T05:36:40.315Z,4.28
2023-02-25T05:37:40.382Z,4.30
2023-02-25T05:38:40.281Z,4.31
2023-02-25T05:39:40.288Z,4.26
2023-02-25T05:40:40.256Z,4.20
2023-02-25T05:41:40.243Z,4.28
2023-02-25T05:42:40.248Z,4.30
2023-02-25T05:43:40.234Z,4.16
2023-02-25T05:44:40.218Z,4.24
2023-02-25T05:45:40.217Z,4.31
2023-02-25T05:46:40.272Z,4.23
2023-02-25T05:47:40.661Z,4.16
2023-02-25T05:48:40.193Z,4.23
2023-02-25T05:49:40.221Z,4.19
2023-02-25T05:50:40.485Z,4.16
2023-02-25T05:51:40.136Z,4.24
2023-02-25T05:52:40.148Z,4.22
2023-02-25T05:53:40.112Z,4.23
2023-02-25T05:54:40.102Z,4.14
2023-02-25T05:55:40.090Z,4.19
2023-02-25T05:56:40.084Z,4.22
2023-02-25T05:57:40.077Z,4.20
2023-02-25T05:58:40.108Z,4.10
2023-02-25T05:59:40.046Z,4.13
2023-02-25T06:00:40.069Z,4.14
2023-02-25T06:01:40.115Z,4.20
2023-02-25T06:02:40.024Z,4.22
2023-02-25T06:03:40.003Z,4.20
2023-02-25T06:04:40.017Z,4.22
2023-02-25T06:05:39.979Z,4.17
2023-02-25T06:06:39.970Z,4.19
2023-02-25T06:07:40.608Z,4.22
2023-02-25T06:08:39.960Z,4.14
2023-02-25T06:09:39.961Z,4.17
2023-02-25T06:10:39.943Z,4.14
2023-02-25T06:11:39.916Z,4.19
2023-02-25T06:12:39.898Z,4.16
2023-02-25T06:13:39.926Z,4.23
2023-02-25T06:14:39.883Z,4.10
2023-02-25T06:15:39.866Z,4.14
2023-02-25T06:16:39.916Z,4.17
2023-02-25T06:17:39.883Z,4.16
2023-02-25T06:18:40.056Z,4.17
2023-02-25T06:19:39.855Z,4.14
2023-02-25T06:20:39.821Z,4.16
2023-02-25T06:21:39.847Z,4.14
2023-02-25T06:22:39.795Z,4.14
2023-02-25T06:23:39.784Z,4.12
2023-02-25T06:24:39.773Z,4.12
2023-02-25T06:25:40.637Z,4.17
2023-02-25T06:26:39.776Z,4.17
2023-02-25T06:27:39.736Z,4.14
2023-02-25T06:28:39.729Z,4.13
2023-02-25T06:29:39.715Z,4.19
2023-02-25T06:30:39.750Z,4.13
2023-02-25T06:31:39.763Z,4.17
2023-02-25T06:32:39.700Z,4.17
2023-02-25T06:33:39.695Z,4.20
2023-02-25T06:34:39.665Z,4.23
2023-02-25T06:35:39.657Z,4.12
2023-02-25T06:36:39.645Z,4.12
2023-02-25T06:37:39.629Z,4.13
2023-02-25T06:38:39.657Z,4.14
2023-02-25T06:39:39.610Z,4.14
2023-02-25T06:40:39.600Z,4.14
2023-02-25T06:41:39.695Z,4.05
2023-02-25T06:42:39.588Z,4.12
2023-02-25T06:43:39.570Z,4.05
2023-02-25T06:44:39.558Z,4.08
2023-02-25T06:45:40.204Z,4.17
2023-02-25T06:46:39.534Z,4.14
2023-02-25T06:47:39.662Z,4.13
2023-02-25T06:48:39.526Z,4.02
2023-02-25T06:49:40.708Z,3.99
2023-02-25T06:50:39.501Z,4.02
2023-02-25T06:51:40.229Z,3.95
2023-02-25T06:52:40.611Z,3.94
2023-02-25T06:53:40.126Z,3.92
2023-02-25T06:54:39.449Z,3.94
2023-02-25T06:55:39.486Z,3.91
2023-02-25T06:56:40.110Z,3.99
2023-02-25T06:57:39.417Z,4.01
2023-02-25T06:58:39.410Z,3.94
2023-02-25T06:59:39.394Z,4.02
2023-02-25T07:00:39.387Z,3.98
2023-02-25T07:01:39.433Z,3.95
2023-02-25T07:02:39.360Z,3.98
2023-02-25T07:03:39.400Z,3.94
2023-02-25T07:04:39.376Z,3.95
2023-02-25T07:05:39.448Z,3.99
2023-02-25T07:06:39.321Z,3.96
2023-02-25T07:07:39.320Z,3.95
2023-02-25T07:08:39.316Z,3.92
2023-02-25T07:09:39.287Z,3.91
2023-02-25T07:10:39.280Z,3.91
2023-02-25T07:11:39.279Z,3.96
2023-02-25T07:12:39.254Z,3.92
2023-02-25T07:13:39.237Z,3.91
2023-02-25T07:14:39.234Z,3.96
2023-02-25T07:15:39.270Z,3.98
2023-02-25T07:16:39.225Z,3.94
2023-02-25T07:17:39.200Z,3.95
2023-02-25T07:18:39.189Z,3.99
2023-02-25T07:19:40.150Z,3.99
2023-02-25T07:20:39.169Z,3.94
2023-02-25T07:21:39.213Z,3.94
2023-02-25T07:22:39.143Z,3.91
2023-02-25T07:23:39.136Z,4.01
2023-02-25T07:24:39.137Z,4.02
2023-02-25T07:25:39.167Z,4.04
2023-02-25T07:26:39.104Z,4.04
2023-02-25T07:27:39.086Z,4.05
2023-02-25T07:28:39.110Z,4.13
2023-02-25T07:29:39.068Z,4.22
2023-02-25T07:30:39.096Z,4.14
2023-02-25T07:31:39.350Z,4.23
2023-02-25T07:32:39.243Z,4.30
2023-02-25T07:33:39.049Z,4.30
2023-02-25T07:34:39.030Z,4.32
2023-02-25T07:35:39.003Z,4.31
2023-02-25T07:36:39.016Z,4.22
2023-02-25T07:37:39.002Z,4.31
2023-02-25T07:38:38.983Z,4.26
2023-02-25T07:39:38.994Z,4.42
2023-02-25T07:40:38.953Z,4.42
2023-02-25T07:41:38.955Z,4.42
2023-02-25T07:42:38.942Z,4.49
2023-02-25T07:43:39.104Z,4.55
2023-02-25T07:44:38.962Z,4.49
2023-02-25T07:45:38.899Z,4.45
2023-02-25T07:46:38.895Z,4.48
2023-02-25T07:47:38.902Z,4.44
2023-02-25T07:48:38.909Z,4.45
2023-02-25T07:49:38.856Z,4.41
2023-02-25T07:50:39.182Z,4.42
2023-02-25T07:51:38.834Z,4.40
2023-02-25T07:52:38.825Z,4.50
2023-02-25T07:53:38.897Z,4.44
2023-02-25T07:54:38.804Z,4.44
2023-02-25T07:55:38.827Z,4.55
2023-02-25T07:56:38.779Z,4.60
2023-02-25T07:57:38.772Z,4.50
2023-02-25T07:58:38.753Z,4.70
2023-02-25T07:59:38.760Z,4.75
2023-02-25T08:00:38.740Z,4.70
2023-02-25T08:01:38.817Z,4.75
2023-02-25T08:02:38.749Z,4.89
2023-02-25T08:03:38.707Z,4.92
2023-02-25T08:04:38.790Z,5.04
2023-02-25T08:05:38.690Z,4.99
2023-02-25T08:06:38.683Z,5.10
2023-02-25T08:07:38.711Z,5.07
2023-02-25T08:08:38.645Z,5.12
2023-02-25T08:09:38.674Z,5.20
2023-02-25T08:10:38.769Z,5.07
2023-02-25T08:11:38.610Z,5.00
2023-02-25T08:12:38.603Z,4.97
2023-02-25T08:13:38.594Z,5.00
2023-02-25T08:14:39.623Z,5.02
2023-02-25T08:15:38.589Z,4.99
2023-02-25T08:16:39.124Z,5.05
2023-02-25T08:17:38.543Z,5.17
2023-02-25T08:18:38.536Z,5.12
2023-02-25T08:19:38.535Z,5.26
2023-02-25T08:20:38.514Z,5.21
2023-02-25T08:21:39.165Z,5.21
2023-02-25T08:22:38.499Z,5.08
2023-02-25T08:23:38.482Z,4.97
2023-02-25T08:24:38.483Z,5.02
2023-02-25T08:25:38.475Z,5.11
2023-02-25T08:26:38.446Z,4.97
2023-02-25T08:27:38.448Z,5.04
2023-02-25T08:28:38.425Z,4.96
2023-02-25T08:29:38.424Z,5.04
2023-02-25T08:30:39.185Z,4.84
2023-02-25T08:31:38.566Z,4.89
2023-02-25T08:32:38.951Z,4.82
2023-02-25T08:33:38.391Z,4.87
2023-02-25T08:34:38.378Z,4.82
2023-02-25T08:35:38.352Z,4.89
2023-02-25T08:36:38.334Z,4.84
2023-02-25T08:37:38.338Z,4.80
2023-02-25T08:38:38.326Z,4.68
2023-02-25T08:39:38.306Z,4.71
2023-02-25T08:40:38.290Z,4.73
2023-02-25T08:41:38.306Z,4.80
2023-02-25T08:42:39.152Z,4.80
2023-02-25T08:43:38.266Z,4.73
2023-02-25T08:44:38.257Z,4.78
2023-02-25T08:45:38.269Z,4.68
2023-02-25T08:46:38.271Z,4.67
2023-02-25T08:47:38.231Z,4.70
2023-02-25T08:48:38.200Z,4.74
2023-02-25T08:49:38.206Z,4.68
2023-02-25T08:50:38.264Z,4.68
2023-02-25T08:51:38.174Z,4.71
2023-02-25T08:52:40.043Z,4.84
2023-02-25T08:53:38.141Z,4.78
2023-02-25T08:54:38.161Z,4.90
2023-02-25T08:55:38.141Z,4.87
2023-02-25T08:56:38.132Z,4.90
2023-02-25T08:57:38.240Z,4.96
2023-02-25T08:58:38.125Z,4.99
2023-02-25T08:59:38.078Z,5.04
2023-02-25T09:00:38.148Z,5.10
2023-02-25T09:01:38.197Z,5.10
2023-02-25T09:02:38.043Z,5.08
2023-02-25T09:03:38.035Z,4.99
2023-02-25T09:04:38.158Z,5.02
2023-02-25T09:05:38.024Z,5.04
2023-02-25T09:06:38.028Z,4.90
2023-02-25T09:07:38.027Z,4.86
2023-02-25T09:08:37.980Z,4.80
2023-02-25T09:09:37.966Z,4.84
2023-02-25T09:10:49.391Z,4.77
2023-02-25T09:11:38.983Z,4.82
2023-02-25T09:12:37.930Z,4.78
2023-02-25T09:13:37.958Z,4.80
2023-02-25T09:14:37.915Z,4.77
2023-02-25T09:15:37.971Z,4.74
2023-02-25T09:16:37.967Z,4.67
2023-02-25T09:17:37.881Z,4.68
2023-02-25T09:18:37.910Z,4.70
2023-02-25T09:19:37.863Z,4.77
2023-02-25T09:20:37.845Z,4.71
2023-02-25T09:21:38.699Z,4.74
2023-02-25T09:22:37.818Z,4.75
2023-02-25T09:23:37.866Z,4.71
2023-02-25T09:24:37.803Z,4.74
2023-02-25T09:25:37.798Z,4.62
2023-02-25T09:26:37.779Z,4.58
2023-02-25T09:27:37.784Z,4.67
2023-02-25T09:28:37.777Z,4.74
2023-02-25T09:29:37.765Z,4.74
2023-02-25T09:30:37.756Z,4.75
2023-02-25T09:31:38.009Z,4.74
2023-02-25T09:32:38.105Z,4.70
2023-02-25T09:33:37.700Z,4.82
2023-02-25T09:34:37.692Z,4.89
2023-02-25T09:35:37.697Z,4.82
2023-02-25T09:36:37.679Z,4.90
2023-02-25T09:37:37.663Z,4.90
2023-02-25T09:38:37.658Z,4.93
2023-02-25T09:39:37.651Z,4.92
2023-02-25T09:40:37.670Z,4.94
2023-02-25T09:41:37.630Z,4.94
2023-02-25T09:42:37.605Z,5.04
2023-02-25T09:43:37.604Z,5.04
2023-02-25T09:44:37.630Z,5.21
2023-02-25T09:45:37.653Z,5.30
2023-02-25T09:46:37.574Z,5.35
2023-02-25T09:47:37.579Z,5.46
2023-02-25T09:48:37.553Z,5.46
2023-02-25T09:49:37.548Z,5.59
2023-02-25T09:50:37.516Z,5.64
2023-02-25T09:51:37.513Z,5.61
2023-02-25T09:52:37.494Z,5.73
2023-02-25T09:53:37.499Z,5.71
2023-02-25T09:54:37.720Z,5.64
2023-02-25T09:55:37.466Z,5.83
2023-02-25T09:56:37.469Z,5.76
2023-02-25T09:57:37.448Z,5.73
2023-02-25T09:58:37.440Z,5.82
2023-02-25T09:59:37.419Z,5.79
2023-02-25T10:00:37.430Z,5.80
2023-02-25T10:01:37.416Z,5.75
2023-02-25T10:02:37.530Z,5.87
2023-02-25T10:03:37.679Z,5.89
2023-02-25T10:04:37.379Z,5.91
2023-02-25T10:05:37.377Z,5.90
2023-02-25T10:06:37.365Z,5.80
2023-02-25T10:07:37.336Z,5.82
2023-02-25T10:08:37.323Z,5.79
2023-02-25T10:09:37.338Z,5.66
2023-02-25T10:10:37.299Z,5.56
2023-02-25T10:11:37.294Z,5.59
2023-02-25T10:12:37.289Z,5.59
2023-02-25T10:13:37.280Z,5.68
2023-02-25T10:14:37.272Z,5.71
2023-02-25T10:15:37.266Z,5.72
2023-02-25T10:16:37.293Z,5.68
2023-02-25T10:17:37.243Z,5.48
2023-02-25T10:18:37.211Z,5.44
2023-02-25T10:19:37.220Z,5.41
2023-02-25T10:20:37.204Z,5.39
2023-02-25T10:21:37.916Z,5.25
2023-02-25T10:22:37.171Z,5.36
2023-02-25T10:23:37.166Z,5.36
2023-02-25T10:24:37.144Z,5.41
2023-02-25T10:25:37.157Z,5.48
2023-02-25T10:26:37.136Z,5.59
2023-02-25T10:27:37.118Z,5.62
2023-02-25T10:28:37.102Z,5.65
2023-02-25T10:29:37.118Z,5.59
2023-02-25T10:30:37.294Z,5.51
2023-02-25T10:31:37.136Z,5.39
2023-02-25T10:32:37.094Z,5.41
2023-02-25T10:33:37.127Z,5.43
2023-02-25T10:34:37.142Z,5.47
2023-02-25T10:35:37.040Z,5.61
2023-02-25T10:36:37.010Z,5.66
2023-02-25T10:37:37.005Z,5.84
2023-02-25T10:38:36.995Z,5.71
2023-02-25T10:39:36.978Z,5.89
2023-02-25T10:40:36.989Z,6.09
2023-02-25T10:41:37.017Z,6.08
2023-02-25T10:42:36.949Z,6.22
2023-02-25T10:43:36.990Z,6.24
2023-02-25T10:44:36.926Z,6.19
2023-02-25T10:45:36.962Z,6.01
2023-02-25T10:46:36.971Z,6.08
2023-02-25T10:47:36.922Z,6.05
2023-02-25T10:48:36.877Z,5.93
2023-02-25T10:49:36.887Z,5.87
2023-02-25T10:50:45.588Z,5.91
2023-02-25T10:51:37.858Z,6.01
2023-02-25T10:52:36.842Z,6.05
2023-02-25T10:53:36.829Z,5.97
2023-02-25T10:54:36.987Z,6.09
2023-02-25T10:55:36.802Z,6.28
2023-02-25T10:56:36.799Z,6.44
2023-02-25T10:57:36.794Z,6.70
2023-02-25T10:58:36.767Z,6.88
2023-02-25T10:59:36.763Z,7.23
2023-02-25T11:00:36.746Z,7.38
2023-02-25T11:01:43.906Z,7.56
2023-02-25T11:02:36.845Z,7.42
2023-02-25T11:03:36.823Z,7.47
2023-02-25T11:04:36.724Z,7.60
2023-02-25T11:05:36.816Z,7.91
2023-02-25T11:06:36.696Z,8.19
2023-02-25T11:07:36.682Z,8.34
2023-02-25T11:08:36.665Z,8.55
2023-02-25T11:09:36.692Z,8.55
2023-02-25T11:10:36.668Z,8.58
2023-02-25T11:11:36.630Z,8.51
2023-02-25T11:12:36.618Z,8.55
2023-02-25T11:13:36.607Z,8.45
2023-02-25T11:14:36.638Z,8.23
2023-02-25T11:15:45.990Z,8.13
2023-02-25T11:16:37.684Z,7.93
2023-02-25T11:17:36.578Z,7.82
2023-02-25T11:18:36.547Z,7.61
2023-02-25T11:19:36.574Z,7.43
2023-02-25T11:20:36.541Z,7.23
2023-02-25T11:21:36.558Z,7.23
2023-02-25T11:22:36.506Z,7.07
2023-02-25T11:23:36.516Z,6.96
2023-02-25T11:24:36.482Z,6.78
2023-02-25T11:25:36.489Z,6.66
2023-02-25T11:26:36.496Z,6.31
2023-02-25T11:27:38.960Z,5.82
2023-02-25T11:28:36.436Z,5.64
2023-02-25T11:29:36.448Z,5.61
2023-02-25T11:30:36.637Z,5.68
2023-02-25T11:31:36.641Z,5.48
2023-02-25T11:32:36.554Z,5.50
2023-02-25T11:33:36.384Z,5.44
2023-02-25T11:34:36.581Z,5.11
2023-02-25T11:35:36.376Z,5.17
2023-02-25T11:36:36.360Z,5.21
2023-02-25T11:37:36.657Z,5.30
2023-02-25T11:38:36.338Z,5.44
2023-02-25T11:39:36.344Z,5.44
2023-02-25T11:40:36.311Z,5.69
2023-02-25T11:41:36.304Z,5.93
2023-02-25T11:42:36.295Z,6.19
2023-02-25T11:43:36.366Z,6.64
2023-02-25T11:44:36.284Z,6.93
2023-02-25T11:45:36.258Z,7.17
2023-02-25T11:46:36.337Z,7.17
2023-02-25T11:47:36.233Z,7.17
2023-02-25T11:48:36.329Z,7.15
2023-02-25T11:49:36.207Z,7.24
2023-02-25T11:50:36.192Z,7.31
2023-02-25T11:51:36.201Z,7.40
2023-02-25T11:52:36.178Z,7.39
2023-02-25T11:53:36.248Z,7.36
2023-02-25T11:54:36.183Z,7.38
2023-02-25T11:55:36.143Z,7.36
2023-02-25T11:56:36.150Z,7.38
2023-02-25T11:57:36.126Z,7.32
2023-02-25T11:58:36.104Z,7.60
2023-02-25T11:59:36.102Z,7.83
2023-02-25T12:00:36.114Z,7.87
2023-02-25T12:01:36.073Z,7.97
2023-02-25T12:02:36.069Z,7.97
2023-02-25T12:03:36.052Z,7.90
2023-02-25T12:04:36.060Z,7.85
2023-02-25T12:05:36.093Z,7.75
2023-02-25T12:06:36.030Z,7.57
2023-02-25T12:07:36.002Z,7.66
2023-02-25T12:08:36.017Z,7.50
2023-02-25T12:09:36.027Z,7.45
2023-02-25T12:10:35.974Z,7.42
2023-02-25T12:11:35.966Z,7.15
2023-02-25T12:12:35.966Z,7.07
2023-02-25T12:13:36.018Z,7.03
2023-02-25T12:14:35.926Z,6.96
2023-02-25T12:15:35.919Z,6.88
2023-02-25T12:16:35.968Z,6.84
2023-02-25T12:17:35.898Z,6.92
2023-02-25T12:18:35.882Z,6.81
2023-02-25T12:19:35.868Z,6.62
2023-02-25T12:20:35.860Z,6.49
2023-02-25T12:21:35.852Z,6.36
2023-02-25T12:22:35.856Z,6.22
2023-02-25T12:23:35.929Z,6.07
2023-02-25T12:24:35.827Z,5.75
2023-02-25T12:25:35.928Z,5.23
2023-02-25T12:26:35.799Z,5.04
2023-02-25T12:27:35.798Z,4.80
2023-02-25T12:28:35.777Z,4.70
2023-02-25T12:29:35.794Z,4.63
2023-02-25T12:30:35.772Z,4.58
2023-02-25T12:31:35.775Z,4.59
2023-02-25T12:32:35.784Z,4.45
2023-02-25T12:33:35.715Z,4.26
2023-02-25T12:34:35.716Z,4.30
2023-02-25T12:35:35.723Z,4.20
2023-02-25T12:36:35.689Z,4.35
2023-02-25T12:37:35.677Z,4.45
2023-02-25T12:38:35.666Z,4.63
2023-02-25T12:39:35.695Z,4.59
2023-02-25T12:40:35.637Z,4.50
2023-02-25T12:41:35.648Z,4.28
2023-02-25T12:42:35.703Z,4.56
2023-02-25T12:43:36.258Z,4.48
2023-02-25T12:44:35.630Z,4.55
2023-02-25T12:45:35.629Z,4.68
2023-02-25T12:46:35.590Z,4.77
2023-02-25T12:47:35.561Z,4.75
2023-02-25T12:48:35.561Z,4.89
2023-02-25T12:49:35.565Z,5.04
2023-02-25T12:50:35.569Z,5.14
2023-02-25T12:51:35.526Z,5.25
2023-02-25T12:52:35.652Z,5.41
2023-02-25T12:53:35.525Z,5.21
2023-02-25T12:54:35.514Z,5.32
2023-02-25T12:55:35.519Z,5.36
2023-02-25T12:56:35.526Z,5.00
2023-02-25T12:57:35.473Z,4.89
2023-02-25T12:58:35.473Z,4.87
2023-02-25T12:59:35.487Z,5.00
2023-02-25T13:00:35.420Z,4.99
2023-02-25T13:01:35.413Z,4.92
2023-02-25T13:02:35.398Z,5.02
2023-02-25T13:03:35.478Z,4.99
2023-02-25T13:04:35.384Z,4.99
2023-02-25T13:05:35.790Z,5.00
2023-02-25T13:06:35.360Z,4.93
2023-02-25T13:07:35.341Z,4.82
2023-02-25T13:08:35.357Z,4.86
2023-02-25T13:09:35.332Z,4.82
2023-02-25T13:10:35.336Z,4.80
2023-02-25T13:11:48.275Z,4.71
2023-02-25T13:12:36.380Z,4.62
2023-02-25T13:13:35.298Z,4.58
2023-02-25T13:14:35.268Z,4.60
2023-02-25T13:15:35.264Z,4.45
2023-02-25T13:16:35.258Z,4.52
2023-02-25T13:17:35.230Z,4.59
2023-02-25T13:18:35.238Z,4.58